Time;durP1;ratioP1;P1;durP2;ratioP2;P2;SDS_P1;SDS_P2;PMS_P1;PMS_P2;Temp;Humidity;BMP_temperature;BMP_pressure;BME280_temperature;BME280_humidity;BME280_pressure;Samples;Min_cycle;Max_cycle;Signal;HPM_P1;HPM_P2
2020/12/17 00:01:31;;;;;;;9.40;5.20;;;;;;;1.69;81.86;100590.20;1737173;80;21335;-58
2020/12/17 00:03:59;;;;;;;13.20;6.13;;;;;;;1.69;81.85;100581.34;1719309;81;21242;-58
2020/12/17 00:06:28;;;;;;;11.23;6.33;;;;;;;1.69;81.83;100582.23;1737033;80;21986;-60
2020/12/17 00:08:55;;;;;;;11.33;6.40;;;;;;;1.68;81.80;100576.92;1723591;81;21178;-60
2020/12/17 00:11:22;;;;;;;12.03;6.60;;;;;;;1.65;81.81;100577.80;1720285;81;21796;-61
2020/12/17 00:13:49;;;;;;;11.87;6.43;;;;;;;1.63;81.83;100572.03;1723669;82;21226;-61
2020/12/17 00:16:19;;;;;;;11.40;6.50;;;;;;;1.64;81.84;100577.78;1738720;80;21186;-58
2020/12/17 00:18:46;;;;;;;10.20;4.63;;;;;;;1.63;81.81;100583.53;1730929;81;21193;-58
2020/12/17 00:21:13;;;;;;;9.93;6.10;;;;;;;1.63;81.86;100586.63;1732381;81;21589;-60
2020/12/17 00:23:40;;;;;;;9.97;4.97;;;;;;;1.63;81.89;100581.32;1693816;83;21236;-57
2020/12/17 00:26:12;;;;;;;13.03;6.00;;;;;;;1.64;81.90;100577.34;1715539;82;21260;-59
2020/12/17 00:29:36;;;;;;;9.43;5.43;;;;;;;1.69;81.95;100575.59;1868864;75;27231;-58
2020/12/17 00:32:03;;;;;;;11.80;6.57;;;;;;;1.64;81.87;100577.34;1838625;77;21230;-58
2020/12/17 00:34:30;;;;;;;15.30;8.00;;;;;;;1.64;81.87;100577.78;1841114;76;21201;-56
2020/12/17 00:36:57;;;;;;;10.63;6.53;;;;;;;1.63;81.89;100577.34;1767996;79;21437;-60
2020/12/17 00:39:25;;;;;;;11.03;6.37;;;;;;;1.64;81.88;100578.67;1778928;78;21218;-58
2020/12/17 00:41:52;;;;;;;11.47;5.90;;;;;;;1.66;81.86;100580.00;1785485;79;21091;-58
2020/12/17 00:44:20;;;;;;;14.53;6.70;;;;;;;1.67;81.85;100585.33;1783071;79;21442;-60
2020/12/17 00:46:49;;;;;;;11.30;6.53;;;;;;;1.69;81.88;100581.34;1786583;78;21238;-59
2020/12/17 00:49:17;;;;;;;12.00;6.50;;;;;;;1.72;81.91;100585.31;1782970;78;21015;-57
2020/12/17 00:51:44;;;;;;;10.67;6.13;;;;;;;1.73;81.91;100589.73;1783771;79;21278;-61
2020/12/17 00:54:11;;;;;;;10.33;6.30;;;;;;;1.73;81.88;100581.77;1782474;79;21130;-57
2020/12/17 00:56:46;;;;;;;14.80;8.97;;;;;;;1.72;81.83;100576.91;1781918;78;21657;-61
2020/12/17 00:59:13;;;;;;;9.83;6.23;;;;;;;1.69;81.77;100582.23;1773844;78;21577;-58
2020/12/17 01:01:41;;;;;;;12.87;6.50;;;;;;;1.67;81.83;100585.77;1784359;78;21202;-58
2020/12/17 01:04:08;;;;;;;12.03;5.77;;;;;;;1.69;81.83;100578.70;1779790;79;21182;-56
2020/12/17 01:06:35;;;;;;;8.53;4.33;;;;;;;1.70;81.80;100580.47;1781318;78;21730;-61
2020/12/17 01:09:03;;;;;;;11.20;4.87;;;;;;;1.73;81.78;100577.80;1782101;79;21197;-58
2020/12/17 01:11:31;;;;;;;7.70;4.97;;;;;;;1.72;81.77;100571.59;1784039;79;21435;-60
2020/12/17 01:13:58;;;;;;;7.90;4.67;;;;;;;1.74;81.82;100568.95;1786893;79;21247;-59
2020/12/17 01:16:25;;;;;;;14.50;6.63;;;;;;;1.75;81.83;100571.61;1783045;78;21394;-59
2020/12/17 01:18:53;;;;;;;9.20;5.67;;;;;;;1.75;81.81;100568.07;1784186;79;21237;-57
2020/12/17 01:21:20;;;;;;;9.47;5.47;;;;;;;1.74;81.76;100573.82;1780786;78;21214;-58
2020/12/17 01:23:47;;;;;;;9.03;5.33;;;;;;;1.73;81.74;100572.05;1781284;78;21210;-57
2020/12/17 01:26:14;;;;;;;8.40;4.33;;;;;;;1.75;81.72;100564.98;1781077;78;21195;-56
2020/12/17 01:28:42;;;;;;;7.43;3.70;;;;;;;1.76;81.68;100564.09;1793267;78;21143;-56
2020/12/17 01:31:11;;;;;;;7.53;4.10;;;;;;;1.77;81.68;100564.98;1775310;78;21075;-58
2020/12/17 01:33:38;;;;;;;8.47;4.50;;;;;;;1.77;81.68;100564.55;1779516;79;21008;-61
2020/12/17 01:36:10;;;;;;;9.97;4.73;;;;;;;1.76;81.68;100560.11;1810164;77;21266;-56
2020/12/17 01:38:38;;;;;;;7.17;4.30;;;;;;;1.75;81.71;100553.47;1812187;78;21198;-57
2020/12/17 01:41:07;;;;;;;10.23;5.37;;;;;;;1.74;81.68;100545.06;1780301;79;21210;-61
2020/12/17 01:43:39;;;;;;;7.20;4.37;;;;;;;1.73;81.66;100540.64;1808014;77;21353;-60
2020/12/17 01:46:06;;;;;;;6.73;4.13;;;;;;;1.71;81.63;100535.32;1782635;79;21804;-58
2020/12/17 01:48:34;;;;;;;8.73;4.10;;;;;;;1.72;81.65;100535.77;1795425;78;21434;-57
2020/12/17 01:51:02;;;;;;;7.97;4.13;;;;;;;1.72;81.66;100544.17;1781224;79;21186;-57
2020/12/17 01:53:39;;;;;;;8.20;4.27;;;;;;;1.72;81.69;100547.71;1784072;79;21130;-58
2020/12/17 01:56:12;;;;;;;6.90;4.17;;;;;;;1.73;81.65;100552.58;1783048;79;21534;-59
2020/12/17 01:58:42;;;;;;;7.60;4.37;;;;;;;1.72;81.67;100558.33;1780804;80;21865;-60
2020/12/17 02:01:12;;;;;;;10.07;4.43;;;;;;;1.72;81.70;100550.37;1808075;78;21378;-57
2020/12/17 02:03:40;;;;;;;11.03;5.37;;;;;;;1.70;81.69;100549.47;1776872;78;21235;-57
2020/12/17 02:06:07;;;;;;;7.90;4.17;;;;;;;1.68;81.66;100552.59;1806956;78;21166;-57
2020/12/17 02:08:37;;;;;;;10.53;4.57;;;;;;;1.67;81.72;100555.24;1778690;78;21566;-59
2020/12/17 02:11:09;;;;;;;5.87;3.73;;;;;;;1.69;81.68;100563.66;1777334;78;21179;-58
2020/12/17 02:13:49;;;;;;;6.77;3.57;;;;;;;1.71;81.68;100567.17;1782323;78;21389;-58
2020/12/17 02:16:17;;;;;;;6.10;2.73;;;;;;;1.72;81.65;100572.92;1696802;83;21216;-56
2020/12/17 02:18:44;;;;;;;6.13;3.63;;;;;;;1.75;81.71;100578.69;1671728;84;21179;-59
2020/12/17 02:21:13;;;;;;;4.47;3.07;;;;;;;1.75;81.69;100576.92;1689206;83;21187;-58
2020/12/17 02:23:42;;;;;;;5.77;3.40;;;;;;;1.75;81.68;100572.94;1674678;84;21225;-57
2020/12/17 02:26:10;;;;;;;6.87;3.43;;;;;;;1.76;81.72;100570.73;1661569;83;21438;-58
2020/12/17 02:28:37;;;;;;;6.77;3.53;;;;;;;1.76;81.73;100564.09;1689312;83;21176;-57
2020/12/17 02:31:05;;;;;;;6.93;3.53;;;;;;;1.77;81.71;100564.98;1689621;83;21175;-58
2020/12/17 02:33:32;;;;;;;5.83;2.90;;;;;;;1.78;81.65;100562.77;1690598;83;21180;-59
2020/12/17 02:36:00;;;;;;;5.03;2.23;;;;;;;1.78;81.59;100563.66;1688534;83;21237;-59
2020/12/17 02:38:27;;;;;;;3.47;2.40;;;;;;;1.78;81.60;100558.80;1672551;84;22589;-59
2020/12/17 02:40:54;;;;;;;7.13;3.57;;;;;;;1.78;81.66;100562.77;1686156;83;21191;-58
2020/12/17 02:43:22;;;;;;;4.33;3.00;;;;;;;1.77;81.66;100566.31;1671166;84;22304;-59
2020/12/17 02:45:49;;;;;;;5.93;3.40;;;;;;;1.76;81.67;100575.16;1683164;83;21404;-59
2020/12/17 02:48:17;;;;;;;5.83;2.50;;;;;;;1.75;81.71;100565.41;1693396;83;21792;-60
2020/12/17 02:50:45;;;;;;;5.63;3.33;;;;;;;1.74;81.73;100570.28;1690253;83;21414;-59
2020/12/17 02:53:12;;;;;;;6.83;3.53;;;;;;;1.73;81.74;100569.83;1673031;84;21597;-58
2020/12/17 02:55:39;;;;;;;11.73;3.57;;;;;;;1.72;81.71;100572.92;1691046;83;21236;-61
2020/12/17 02:58:07;;;;;;;6.37;2.97;;;;;;;1.73;81.68;100572.05;1688004;83;21218;-60
2020/12/17 03:00:34;;;;;;;5.80;3.30;;;;;;;1.75;81.70;100570.28;1691603;83;21592;-59
2020/12/17 03:03:01;;;;;;;3.93;2.50;;;;;;;1.77;81.70;100574.27;1671483;84;21262;-58
2020/12/17 03:05:28;;;;;;;5.33;2.50;;;;;;;1.78;81.75;100574.28;1692384;83;21193;-59
2020/12/17 03:07:57;;;;;;;5.40;3.10;;;;;;;1.80;81.73;100576.91;1685456;83;21207;-59
2020/12/17 03:10:25;;;;;;;5.77;2.87;;;;;;;1.80;81.75;100583.10;1659503;84;21219;-60
2020/12/17 03:12:52;;;;;;;5.67;3.60;;;;;;;1.80;81.75;100576.91;1671045;84;21167;-59
2020/12/17 03:15:20;;;;;;;5.93;3.80;;;;;;;1.79;81.73;100577.34;1667724;84;21727;-60
2020/12/17 03:17:47;;;;;;;5.30;2.50;;;;;;;1.81;81.74;100582.66;1674070;84;22382;-59
2020/12/17 03:20:15;;;;;;;5.97;3.93;;;;;;;1.81;81.72;100590.63;1670029;84;21210;-59
2020/12/17 03:22:42;;;;;;;7.50;4.33;;;;;;;1.82;81.68;100586.65;1664260;84;21769;-59
2020/12/17 03:25:09;;;;;;;4.03;2.70;;;;;;;1.83;81.67;100591.52;1666567;84;21272;-58
2020/12/17 03:27:36;;;;;;;5.80;2.93;;;;;;;1.85;81.71;100592.41;1722388;81;22263;-60
2020/12/17 03:30:05;;;;;;;4.57;3.40;;;;;;;1.85;81.72;100591.97;1687506;83;21249;-59
2020/12/17 03:32:33;;;;;;;5.57;3.13;;;;;;;1.84;81.70;100601.26;1686106;83;21196;-58
2020/12/17 03:35:00;;;;;;;8.83;3.60;;;;;;;1.83;81.72;100598.16;1683218;83;21272;-59
2020/12/17 03:37:27;;;;;;;5.60;4.17;;;;;;;1.81;81.71;100606.11;1683041;83;21198;-59
2020/12/17 03:39:54;;;;;;;5.23;3.43;;;;;;;1.80;81.72;100607.44;1682067;83;21547;-58
2020/12/17 03:42:22;;;;;;;10.80;3.63;;;;;;;1.78;81.76;100611.88;1685584;83;21672;-59
2020/12/17 03:44:49;;;;;;;6.63;3.83;;;;;;;1.79;81.74;100611.86;1648905;85;21172;-59
2020/12/17 03:47:17;;;;;;;7.23;3.53;;;;;;;1.81;81.73;100609.20;1665981;84;21603;-58
2020/12/17 03:49:44;;;;;;;7.10;3.73;;;;;;;1.83;81.71;100615.41;1676449;83;21206;-59
2020/12/17 03:52:11;;;;;;;7.10;3.53;;;;;;;1.84;81.76;100618.08;1652987;84;22495;-59
2020/12/17 03:54:38;;;;;;;6.63;3.50;;;;;;;1.86;81.72;100616.75;1663588;84;21578;-60
2020/12/17 03:57:06;;;;;;;5.83;3.83;;;;;;;1.87;81.72;100614.55;1669568;84;21222;-60
2020/12/17 03:59:33;;;;;;;8.03;5.27;;;;;;;1.86;81.75;100608.79;1671240;84;21198;-59
2020/12/17 04:02:00;;;;;;;8.47;5.70;;;;;;;1.87;81.77;100608.77;1667856;84;21218;-59
2020/12/17 04:04:27;;;;;;;8.03;5.60;;;;;;;1.87;81.77;100614.07;1668929;84;21275;-59
2020/12/17 04:06:55;;;;;;;11.20;6.60;;;;;;;1.87;81.78;100617.20;1670289;84;21278;-59
2020/12/17 04:09:22;;;;;;;7.60;4.93;;;;;;;1.87;81.79;100617.20;1679375;83;21254;-58
2020/12/17 04:11:49;;;;;;;9.13;4.63;;;;;;;1.88;81.74;100614.95;1682371;83;21600;-58
2020/12/17 04:14:17;;;;;;;8.37;4.23;;;;;;;1.90;81.68;100625.14;1682972;83;21147;-58
2020/12/17 04:16:44;;;;;;;11.23;5.07;;;;;;;1.90;81.69;100618.51;1696358;83;22655;-58
2020/12/17 04:19:11;;;;;;;8.13;4.43;;;;;;;1.90;81.72;100620.72;1678467;83;21222;-58
2020/12/17 04:21:39;;;;;;;8.87;5.20;;;;;;;1.92;81.71;100624.71;1696435;83;21524;-58
2020/12/17 04:24:06;;;;;;;9.60;5.90;;;;;;;1.90;81.68;100619.84;1695775;82;21217;-58
2020/12/17 04:26:34;;;;;;;8.50;5.90;;;;;;;1.92;81.68;100622.50;1698747;83;21676;-58
2020/12/17 04:29:02;;;;;;;12.83;6.67;;;;;;;1.91;81.71;100626.92;1676982;83;23437;-58
2020/12/17 04:31:29;;;;;;;10.03;6.27;;;;;;;1.88;81.64;100621.16;1693033;82;21236;-58
2020/12/17 04:33:56;;;;;;;9.67;5.97;;;;;;;1.86;81.62;100621.62;1727385;81;21436;-59
2020/12/17 04:36:24;;;;;;;8.67;5.67;;;;;;;1.84;81.61;100615.42;1728808;81;21217;-59
2020/12/17 04:38:51;;;;;;;6.87;4.23;;;;;;;1.87;81.63;100624.69;1698159;83;21507;-59
2020/12/17 04:41:19;;;;;;;7.70;4.70;;;;;;;1.87;81.65;100625.16;1699544;83;21438;-60
2020/12/17 04:43:47;;;;;;;5.40;3.47;;;;;;;1.88;81.69;100621.59;1669945;84;21623;-59
2020/12/17 04:46:19;;;;;;;9.80;5.07;;;;;;;1.88;81.72;100615.84;1693820;83;21192;-59
2020/12/17 04:48:47;;;;;;;7.53;4.13;;;;;;;1.89;81.73;100622.93;1703524;82;21166;-59
2020/12/17 04:51:14;;;;;;;9.13;6.27;;;;;;;1.90;81.73;100618.06;1670201;84;21230;-58
2020/12/17 04:53:45;;;;;;;9.43;5.33;;;;;;;1.92;81.71;100622.50;1692616;83;21910;-59
2020/12/17 04:56:18;;;;;;;10.50;6.33;;;;;;;1.92;81.67;100617.19;1695024;83;21458;-59
2020/12/17 04:58:49;;;;;;;10.13;6.10;;;;;;;1.90;81.67;100619.39;1693203;83;21497;-58
2020/12/17 05:01:18;;;;;;;11.03;6.50;;;;;;;1.90;81.72;100622.05;1699043;83;21199;-60
2020/12/17 05:03:48;;;;;;;9.03;5.33;;;;;;;1.92;81.68;100619.84;1696053;82;21608;-58
2020/12/17 05:06:24;;;;;;;6.63;4.73;;;;;;;1.94;81.67;100613.66;1693631;83;21548;-60
2020/12/17 05:08:52;;;;;;;7.20;4.33;;;;;;;1.95;81.68;100612.78;1689327;83;21198;-60
2020/12/17 05:11:19;;;;;;;9.20;4.87;;;;;;;1.95;81.65;100618.09;1665374;84;21586;-58
2020/12/17 05:13:47;;;;;;;9.37;5.40;;;;;;;1.96;81.63;100618.97;1668248;84;21634;-59
2020/12/17 05:16:15;;;;;;;9.57;5.63;;;;;;;1.97;81.65;100612.75;1694602;83;21170;-59
2020/12/17 05:18:42;;;;;;;11.33;5.97;;;;;;;1.99;81.62;100626.92;1693178;83;21194;-60
2020/12/17 05:21:09;;;;;;;7.20;4.30;;;;;;;1.97;81.58;100618.95;1682384;83;21203;-58
2020/12/17 05:23:38;;;;;;;7.13;3.90;;;;;;;1.95;81.58;100628.70;1626598;85;21229;-59
2020/12/17 05:26:05;;;;;;;9.87;5.07;;;;;;;1.95;81.59;100631.80;1653747;84;21216;-58
2020/12/17 05:28:32;;;;;;;8.70;4.27;;;;;;;1.93;81.60;100629.58;1669053;84;21194;-59
2020/12/17 05:30:59;;;;;;;8.47;4.53;;;;;;;1.92;81.60;100631.79;1668797;84;23672;-59
2020/12/17 05:33:26;;;;;;;6.27;3.70;;;;;;;1.92;81.58;100633.12;1673018;84;21205;-58
2020/12/17 05:35:54;;;;;;;6.53;3.67;;;;;;;1.92;81.58;100628.70;1670208;84;21214;-59
2020/12/17 05:38:24;;;;;;;5.93;3.10;;;;;;;1.94;81.58;100630.03;1666567;84;21267;-59
2020/12/17 05:40:51;;;;;;;6.37;2.57;;;;;;;1.95;81.57;100634.02;1666360;84;21214;-59
2020/12/17 05:43:22;;;;;;;4.67;2.47;;;;;;;1.96;81.56;100637.09;1669996;84;21440;-59
2020/12/17 05:45:49;;;;;;;6.27;2.57;;;;;;;1.96;81.56;100643.72;1669914;84;21206;-58
2020/12/17 05:48:19;;;;;;;4.20;3.00;;;;;;;1.95;81.51;100649.06;1665599;84;21260;-59
2020/12/17 05:50:53;;;;;;;4.43;2.90;;;;;;;1.92;81.52;100651.27;1667394;84;21192;-59
2020/12/17 05:53:25;;;;;;;7.03;3.70;;;;;;;1.92;81.56;100661.00;1668327;84;21266;-58
2020/12/17 05:56:00;;;;;;;4.43;3.37;;;;;;;1.91;81.50;100654.80;1661647;84;21237;-58
2020/12/17 05:58:41;;;;;;;6.30;3.40;;;;;;;1.89;81.57;100661.87;1668877;84;21245;-58
2020/12/17 06:01:15;;;;;;;4.80;2.93;;;;;;;1.88;81.55;100661.42;1668745;84;21210;-61
2020/12/17 06:03:42;;;;;;;5.28;3.35;;;;;;;1.90;81.56;100660.55;1669815;84;21221;-60
2020/12/17 06:06:10;;;;;;;5.03;3.03;;;;;;;1.91;81.60;100660.11;1669589;84;21242;-61
2020/12/17 06:08:41;;;;;;;4.57;2.87;;;;;;;1.92;81.60;100657.02;1668931;84;21579;-62
2020/12/17 06:11:09;;;;;;;5.77;4.07;;;;;;;1.94;81.63;100666.77;1665577;84;21469;-60
2020/12/17 06:13:39;;;;;;;6.37;3.40;;;;;;;1.95;81.54;100669.86;1673405;84;21273;-61
2020/12/17 06:16:09;;;;;;;8.80;4.80;;;;;;;1.94;81.53;100677.82;1664353;84;21206;-60
2020/12/17 06:18:40;;;;;;;7.23;4.27;;;;;;;1.93;81.49;100670.73;1646112;85;21558;-61
2020/12/17 06:21:10;;;;;;;7.23;4.80;;;;;;;1.92;81.49;100679.58;1646703;85;21961;-61
2020/12/17 06:23:38;;;;;;;9.57;4.80;;;;;;;1.89;81.50;100676.47;1659695;84;22553;-61
2020/12/17 06:26:08;;;;;;;7.57;4.27;;;;;;;1.87;81.49;100684.90;1658450;84;21628;-61
2020/12/17 06:28:47;;;;;;;8.97;4.70;;;;;;;1.83;81.42;100682.67;1656085;84;21753;-59
2020/12/17 06:31:26;;;;;;;7.10;4.30;;;;;;;1.83;81.47;100684.44;1660358;84;21110;-60
2020/12/17 06:33:50;;;;;;;6.77;3.67;;;;;;;1.82;81.48;100678.23;1659737;84;21223;-60
2020/12/17 06:36:43;;;;;;;6.40;3.90;;;;;;;1.82;81.56;100683.55;1658908;84;21124;-61
2020/12/17 06:39:11;;;;;;;9.80;6.00;;;;;;;1.84;81.60;100686.20;1655990;84;21561;-60
2020/12/17 06:41:38;;;;;;;11.50;6.20;;;;;;;1.87;81.70;100686.23;1659745;84;21174;-60
2020/12/17 06:44:30;;;;;;;9.93;5.70;;;;;;;1.86;81.70;100678.70;1663101;84;21226;-59
2020/12/17 06:46:59;;;;;;;10.00;6.17;;;;;;;1.87;81.72;100679.59;1655346;84;22134;-59
2020/12/17 06:49:28;;;;;;;10.57;6.07;;;;;;;1.86;81.65;100685.34;1653424;85;21259;-60
2020/12/17 06:52:07;;;;;;;10.97;6.30;;;;;;;1.84;81.67;100683.55;1655536;84;21226;-59
2020/12/17 06:54:40;;;;;;;11.17;5.90;;;;;;;1.84;81.64;100691.52;1647031;85;21219;-60
2020/12/17 06:57:12;;;;;;;12.57;7.50;;;;;;;1.83;81.64;100686.65;1644164;85;21179;-59
2020/12/17 06:59:44;;;;;;;11.23;6.77;;;;;;;1.85;81.72;100691.53;1664099;84;22116;-59
2020/12/17 07:02:18;;;;;;;12.37;8.07;;;;;;;1.87;81.75;100693.72;1660917;84;21151;-59
2020/12/17 07:07:24;;;;;;;13.10;7.73;;;;;;;1.96;81.80;100695.50;1811384;76;26712;-58
2020/12/17 07:09:55;;;;;;;16.53;9.93;;;;;;;1.95;81.78;100695.53;1774620;80;21222;-58
2020/12/17 07:12:41;;;;;;;14.60;8.87;;;;;;;1.97;81.74;100694.63;1769171;79;22721;-58
2020/12/17 07:15:33;;;;;;;14.33;8.63;;;;;;;1.96;81.68;100702.14;1778774;80;21025;-59
2020/12/17 07:18:23;;;;;;;14.37;7.90;;;;;;;1.94;81.71;100701.28;1773482;78;21162;-59
2020/12/17 07:21:06;;;;;;;14.60;8.73;;;;;;;1.92;81.70;100698.16;1768357;78;21588;-61
2020/12/17 07:23:40;;;;;;;13.03;7.80;;;;;;;1.90;81.62;100699.05;1766395;79;21158;-60
2020/12/17 07:26:12;;;;;;;13.95;7.25;;;;;;;1.90;81.66;100707.45;1761592;79;21304;-60
2020/12/17 07:28:39;;;;;;;12.43;8.30;;;;;;;1.92;81.71;100711.00;1768310;78;21114;-60
2020/12/17 07:31:07;;;;;;;12.73;7.80;;;;;;;1.94;81.73;100718.53;1768333;79;21052;-60
2020/12/17 07:33:39;;;;;;;13.47;7.47;;;;;;;1.97;81.70;100716.30;1766062;79;21193;-61
2020/12/17 07:36:07;;;;;;;17.53;10.03;;;;;;;1.94;81.70;100721.63;1770740;80;21238;-59
2020/12/17 07:38:35;;;;;;;15.77;9.13;;;;;;;1.94;81.72;100732.25;1767988;78;21260;-61
2020/12/17 07:41:04;;;;;;;15.77;9.53;;;;;;;1.93;81.68;100728.70;1766658;80;21182;-61
2020/12/17 07:43:42;;;;;;;15.33;9.13;;;;;;;1.92;81.71;100728.27;1767766;80;21170;-59
2020/12/17 07:46:09;;;;;;;22.20;13.93;;;;;;;1.92;81.72;100730.91;1767649;80;21170;-61
2020/12/17 07:48:51;;;;;;;16.63;10.07;;;;;;;1.94;81.73;100742.44;1771142;80;22099;-60
2020/12/17 07:51:24;;;;;;;13.87;8.83;;;;;;;1.95;81.70;100740.23;1767377;80;21742;-61
2020/12/17 07:53:52;;;;;;;15.00;8.03;;;;;;;1.96;81.72;100740.64;1765112;79;21163;-59
2020/12/17 07:56:20;;;;;;;15.87;9.70;;;;;;;1.99;81.70;100741.98;1768242;80;21541;-60
2020/12/17 07:58:48;;;;;;;18.27;11.37;;;;;;;2.01;81.68;100744.22;1767687;80;21198;-61
2020/12/17 08:01:16;;;;;;;20.67;12.23;;;;;;;2.03;81.71;100734.93;1769128;80;21413;-60
2020/12/17 08:03:51;;;;;;;18.90;11.67;;;;;;;2.04;81.75;100733.58;1768804;79;21199;-62
2020/12/17 08:06:23;;;;;;;18.77;9.77;;;;;;;2.09;81.69;100736.26;1774641;78;21162;-61
2020/12/17 08:09:03;;;;;;;18.27;11.37;;;;;;;2.08;81.61;100735.37;1776661;79;21028;-61
2020/12/17 08:11:38;;;;;;;18.93;11.17;;;;;;;2.06;81.54;100735.80;1766551;80;21087;-62
2020/12/17 08:14:11;;;;;;;19.03;11.37;;;;;;;2.04;81.55;100741.54;1768204;79;22107;-59
2020/12/17 08:16:38;;;;;;;19.97;11.70;;;;;;;2.04;81.55;100739.36;1772307;80;21180;-61
2020/12/17 08:19:05;;;;;;;18.57;11.30;;;;;;;2.04;81.54;100739.36;1766240;78;21197;-61
2020/12/17 08:21:33;;;;;;;16.33;9.57;;;;;;;2.06;81.59;100741.55;1765909;79;21182;-59
2020/12/17 08:24:11;;;;;;;15.93;9.63;;;;;;;2.10;81.61;100740.69;1765967;79;21222;-60
2020/12/17 08:26:42;;;;;;;21.57;12.53;;;;;;;2.11;81.55;100738.48;1743795;79;21600;-59
2020/12/17 08:29:12;;;;;;;16.13;11.13;;;;;;;2.13;81.58;100737.58;1768352;78;21313;-61
2020/12/17 08:31:42;;;;;;;18.07;11.63;;;;;;;2.14;81.56;100742.01;1743959;79;21191;-60
2020/12/17 08:34:09;;;;;;;18.47;12.40;;;;;;;2.15;81.51;100745.11;1769266;78;21190;-60
2020/12/17 08:36:37;;;;;;;23.53;14.17;;;;;;;2.14;81.52;100745.99;1767238;78;21175;-59
2020/12/17 08:39:13;;;;;;;25.93;14.40;;;;;;;2.14;81.52;100743.34;1767365;78;21744;-59
2020/12/17 08:41:53;;;;;;;24.20;13.67;;;;;;;2.13;81.53;100743.33;1767935;78;21776;-61
2020/12/17 08:44:35;;;;;;;21.50;12.83;;;;;;;2.15;81.58;100748.20;1766827;78;21194;-60
2020/12/17 08:47:06;;;;;;;25.57;13.47;;;;;;;2.16;81.51;100741.58;1771479;78;21137;-60
2020/12/17 08:49:33;;;;;;;23.07;14.63;;;;;;;2.19;81.51;100747.34;1773346;78;21095;-61
2020/12/17 08:52:01;;;;;;;30.00;17.83;;;;;;;2.20;81.52;100747.36;1770635;78;21075;-61
2020/12/17 08:54:35;;;;;;;25.27;16.07;;;;;;;2.24;81.55;100753.09;1767193;78;21243;-59
2020/12/17 08:57:08;;;;;;;35.13;18.87;;;;;;;2.26;81.53;100751.78;1764943;78;21521;-60
2020/12/17 08:59:37;;;;;;;35.55;20.37;;;;;;;2.27;81.53;100745.59;1769897;78;25046;-60
2020/12/17 09:02:08;;;;;;;35.27;19.03;;;;;;;2.27;81.51;100749.13;1766203;78;21623;-61
2020/12/17 09:04:39;;;;;;;39.13;22.00;;;;;;;2.27;81.46;100753.11;1769616;79;21246;-59
2020/12/17 09:07:25;;;;;;;47.73;25.70;;;;;;;2.26;81.41;100748.68;1755206;78;21230;-60
2020/12/17 09:10:13;;;;;;;36.10;21.23;;;;;;;2.25;81.46;100752.22;1793720;78;21162;-60
2020/12/17 09:14:33;;;;;;;37.37;20.40;;;;;;;2.31;81.39;100743.80;1788033;77;26878;-60
2020/12/17 09:17:14;;;;;;;34.03;19.03;;;;;;;2.27;81.39;100749.13;1715867;81;21054;-60
2020/12/17 09:19:43;;;;;;;29.20;18.53;;;;;;;2.30;81.36;100748.70;1735307;80;21392;-61
2020/12/17 09:22:10;;;;;;;29.73;17.27;;;;;;;2.31;81.35;100753.98;1732165;80;21177;-60
2020/12/17 09:24:40;;;;;;;28.23;17.23;;;;;;;2.34;81.37;100750.45;1733019;80;20992;-61
2020/12/17 09:27:29;;;;;;;28.60;17.93;;;;;;;2.36;81.36;100752.23;1738145;80;20955;-60
2020/12/17 09:30:17;;;;;;;34.57;19.63;;;;;;;2.39;81.31;100755.31;1712099;81;20997;-61
2020/12/17 09:33:01;;;;;;;32.33;18.47;;;;;;;2.40;81.24;100750.45;1715092;81;21406;-61
2020/12/17 09:35:35;;;;;;;33.08;19.27;;;;;;;2.37;81.21;100750.03;1724536;81;21467;-61
2020/12/17 09:38:09;;;;;;;34.27;20.72;;;;;;;2.38;81.19;100752.25;1721850;81;21580;-60
2020/12/17 09:40:37;;;;;;;31.13;18.97;;;;;;;2.37;81.12;100746.04;1720050;81;21109;-61
2020/12/17 09:43:06;;;;;;;25.63;16.43;;;;;;;2.34;81.11;100750.02;1718281;81;20970;-59
2020/12/17 09:45:41;;;;;;;32.17;19.13;;;;;;;2.33;81.06;100748.67;1720365;81;21380;-59
2020/12/17 09:48:23;;;;;;;32.70;18.43;;;;;;;2.32;81.07;100750.89;1716005;81;21248;-58
2020/12/17 09:51:06;;;;;;;32.77;20.67;;;;;;;2.32;81.12;100751.77;1718290;81;21120;-60
2020/12/17 09:53:36;;;;;;;35.00;19.73;;;;;;;2.33;81.19;100749.56;1716078;81;21158;-60
2020/12/17 09:56:06;;;;;;;35.80;20.67;;;;;;;2.37;81.16;100749.14;1716735;81;21187;-59
2020/12/17 09:58:35;;;;;;;35.80;22.17;;;;;;;2.38;81.16;100756.23;1715196;81;21644;-58
2020/12/17 10:01:04;;;;;;;43.87;25.00;;;;;;;2.39;81.20;100748.67;1713396;81;21164;-58
2020/12/17 10:03:31;;;;;;;38.80;24.83;;;;;;;2.41;81.15;100746.47;1718136;81;21136;-59
2020/12/17 10:05:58;;;;;;;38.03;23.50;;;;;;;2.41;81.07;100745.14;1717530;81;21133;-58
2020/12/17 10:08:26;;;;;;;42.87;25.30;;;;;;;2.39;81.04;100740.26;1711498;81;21137;-59
2020/12/17 10:10:53;;;;;;;38.17;23.83;;;;;;;2.36;81.08;100752.23;1709088;82;21605;-59
2020/12/17 10:13:21;;;;;;;37.77;22.40;;;;;;;2.35;80.97;100745.59;1715846;81;21128;-58
2020/12/17 10:15:48;;;;;;;39.00;23.60;;;;;;;2.37;81.06;100746.48;1741348;80;21153;-59
2020/12/17 10:18:15;;;;;;;39.97;24.63;;;;;;;2.37;81.06;100742.50;1742135;80;21188;-58
2020/12/17 10:20:42;;;;;;;45.57;25.50;;;;;;;2.38;81.11;100748.26;1742800;80;21607;-59
2020/12/17 10:23:10;;;;;;;43.20;27.53;;;;;;;2.38;81.15;100740.28;1743066;80;21550;-58
2020/12/17 10:25:37;;;;;;;54.33;29.67;;;;;;;2.40;81.16;100737.16;1740598;80;21195;-57
2020/12/17 10:28:04;;;;;;;49.63;27.40;;;;;;;2.41;81.16;100742.48;1737824;80;21483;-58
2020/12/17 10:30:31;;;;;;;48.07;27.50;;;;;;;2.42;81.12;100742.93;1688314;83;21232;-59
2020/12/17 10:32:58;;;;;;;50.67;28.83;;;;;;;2.43;81.19;100738.50;1743892;80;21172;-58
2020/12/17 10:35:26;;;;;;;50.70;30.93;;;;;;;2.43;81.14;100741.16;1736400;80;21284;-61
2020/12/17 10:37:53;;;;;;;59.90;33.90;;;;;;;2.42;81.07;100742.93;1688186;83;21347;-60
2020/12/17 10:40:21;;;;;;;50.93;29.83;;;;;;;2.40;81.04;100739.38;1702923;82;21215;-61
2020/12/17 10:42:50;;;;;;;49.37;27.17;;;;;;;2.40;81.09;100738.48;1733946;80;21197;-61
2020/12/17 10:45:17;;;;;;;45.83;26.03;;;;;;;2.43;81.07;100733.19;1687088;83;21211;-60
2020/12/17 10:47:45;;;;;;;43.20;25.10;;;;;;;2.43;81.07;100739.39;1703532;82;21401;-59
2020/12/17 10:50:12;;;;;;;42.77;23.90;;;;;;;2.45;81.06;100741.61;1706728;80;21870;-57
2020/12/17 10:52:41;;;;;;;36.90;23.50;;;;;;;2.48;81.07;100738.94;1687895;82;21540;-61
2020/12/17 10:55:08;;;;;;;36.57;21.80;;;;;;;2.50;81.09;100737.17;1683229;83;21227;-61
2020/12/17 10:57:35;;;;;;;42.63;26.53;;;;;;;2.53;81.04;100738.95;1679105;83;21248;-61
2020/12/17 11:00:05;;;;;;;40.40;24.97;;;;;;;2.54;81.02;100732.76;1740052;80;21377;-62
2020/12/17 11:02:32;;;;;;;40.00;23.97;;;;;;;2.55;80.99;100738.52;1739021;80;21128;-61
2020/12/17 11:05:01;;;;;;;38.07;23.73;;;;;;;2.55;80.96;100737.19;1740571;80;21265;-61
2020/12/17 11:07:29;;;;;;;35.60;23.47;;;;;;;2.55;80.96;100738.05;1736666;80;21196;-61
2020/12/17 11:09:56;;;;;;;40.60;24.83;;;;;;;2.54;80.91;100750.92;1741163;80;21116;-62
2020/12/17 11:12:23;;;;;;;39.23;22.77;;;;;;;2.56;80.89;100745.58;1741997;80;21665;-61
2020/12/17 11:14:51;;;;;;;42.80;24.40;;;;;;;2.57;80.85;100748.24;1743227;80;21120;-62
2020/12/17 11:17:18;;;;;;;31.47;20.10;;;;;;;2.58;80.87;100742.48;1739401;80;21144;-62
2020/12/17 11:19:45;;;;;;;34.97;20.77;;;;;;;2.60;80.84;100748.69;1740056;80;21193;-62
2020/12/17 11:22:12;;;;;;;32.60;22.27;;;;;;;2.62;80.80;100749.14;1704248;82;21285;-62
2020/12/17 11:24:39;;;;;;;37.03;21.27;;;;;;;2.63;80.81;100744.28;1739676;80;21855;-61
2020/12/17 11:27:07;;;;;;;41.63;23.17;;;;;;;2.65;80.79;100752.22;1736319;80;21227;-61
2020/12/17 11:29:34;;;;;;;45.33;27.53;;;;;;;2.65;80.75;100751.78;1703105;82;21208;-62
2020/12/17 11:32:01;;;;;;;39.23;23.80;;;;;;;2.64;80.70;100743.36;1681000;83;21450;-62
2020/12/17 11:34:28;;;;;;;38.53;23.40;;;;;;;2.64;80.67;100749.12;1682841;82;21191;-62
2020/12/17 11:36:55;;;;;;;41.03;26.40;;;;;;;2.62;80.66;100755.80;1682820;83;21674;-62
2020/12/17 11:39:23;;;;;;;42.67;25.17;;;;;;;2.61;80.62;100751.80;1674968;84;21240;-62
2020/12/17 11:41:50;;;;;;;40.80;24.90;;;;;;;2.60;80.53;100746.92;1743815;80;21176;-62
2020/12/17 11:44:17;;;;;;;46.67;25.47;;;;;;;2.61;80.57;100751.36;1686914;83;21817;-62